createdAt,value
2023-09-29T00:00:41.000Z,8.00
2023-09-29T00:03:30.393Z,8.30
2023-09-29T00:06:01.010Z,8.50
2023-09-29T00:08:29.720Z,7.80
2023-09-29T00:10:58.255Z,7.90
2023-09-29T00:13:26.662Z,7.70
2023-09-29T00:15:55.885Z,8.00
2023-09-29T00:18:24.996Z,8.00
2023-09-29T00:20:54.312Z,8.40
2023-09-29T00:23:23.157Z,8.00
2023-09-29T00:25:51.806Z,8.30
2023-09-29T00:28:20.949Z,7.80
2023-09-29T00:30:50.010Z,8.30
2023-09-29T00:33:19.181Z,8.00
2023-09-29T00:35:48.996Z,7.70
2023-09-29T00:38:17.657Z,7.60
2023-09-29T00:40:47.393Z,7.90
2023-09-29T00:43:18.243Z,8.00
2023-09-29T00:45:51.518Z,8.00
2023-09-29T00:48:21.335Z,7.70
2023-09-29T00:50:50.694Z,7.80
2023-09-29T00:53:20.794Z,8.20
2023-09-29T00:55:49.783Z,8.20
2023-09-29T00:58:20.683Z,7.90
2023-09-29T01:00:49.489Z,7.70
2023-09-29T01:03:20.417Z,7.90
2023-09-29T01:05:53.485Z,8.20
2023-09-29T01:08:31.271Z,8.10
2023-09-29T01:11:08.701Z,7.70
2023-09-29T01:13:42.756Z,7.80
2023-09-29T01:16:11.577Z,7.80
2023-09-29T01:18:42.288Z,7.70
2023-09-29T01:21:12.786Z,8.20
2023-09-29T01:23:44.197Z,7.50
2023-09-29T01:26:14.899Z,7.20
2023-09-29T01:28:44.590Z,7.70
2023-09-29T01:31:14.120Z,7.80
2023-09-29T01:33:43.098Z,7.70
2023-09-29T01:36:12.130Z,7.50
2023-09-29T01:38:41.663Z,7.40
2023-09-29T01:41:10.530Z,7.80
2023-09-29T01:43:41.015Z,8.00
2023-09-29T01:46:10.899Z,7.90
2023-09-29T01:48:40.334Z,8.20
2023-09-29T01:51:10.029Z,8.30
2023-09-29T01:53:38.571Z,7.90
2023-09-29T01:56:08.352Z,8.10
2023-09-29T01:58:36.957Z,7.80
2023-09-29T02:01:05.253Z,7.50
2023-09-29T02:03:34.441Z,7.50
2023-09-29T02:06:04.547Z,7.90
2023-09-29T02:08:33.525Z,7.80
2023-09-29T02:11:02.093Z,7.40
2023-09-29T02:13:32.195Z,7.50
2023-09-29T02:16:04.365Z,7.90
2023-09-29T02:18:33.001Z,7.60
2023-09-29T02:21:01.870Z,7.70
2023-09-29T02:23:30.893Z,7.90
2023-09-29T02:26:03.109Z,7.10
2023-09-29T02:28:33.734Z,7.60
2023-09-29T02:31:05.310Z,7.60
2023-09-29T02:33:34.761Z,7.40
2023-09-29T02:36:03.454Z,8.00
2023-09-29T02:38:38.159Z,7.20
2023-09-29T02:41:08.855Z,7.20
2023-09-29T02:43:38.833Z,7.60
2023-09-29T02:46:22.313Z,7.70
2023-09-29T02:48:50.828Z,7.60
2023-09-29T02:51:21.469Z,7.30
2023-09-29T02:53:51.025Z,7.80
2023-09-29T02:56:19.694Z,8.10
2023-09-29T02:58:48.523Z,7.40
2023-09-29T03:01:20.493Z,8.20
2023-09-29T03:03:49.286Z,7.10
2023-09-29T03:06:25.420Z,7.40
2023-09-29T03:09:00.395Z,7.70
2023-09-29T03:11:29.647Z,7.90
2023-09-29T03:13:58.663Z,6.90
2023-09-29T03:16:27.342Z,7.60
2023-09-29T03:18:57.155Z,8.10
2023-09-29T03:21:26.960Z,7.50
2023-09-29T03:23:56.102Z,7.70
2023-09-29T03:26:26.539Z,7.00
2023-09-29T03:28:56.489Z,7.40
2023-09-29T03:31:25.871Z,7.30
2023-09-29T03:33:54.571Z,7.90
2023-09-29T03:36:24.276Z,7.80
2023-09-29T03:38:53.125Z,8.20
2023-09-29T03:41:24.687Z,7.10
2023-09-29T03:43:54.381Z,7.60
2023-09-29T03:46:26.343Z,7.90
2023-09-29T03:48:54.926Z,7.80
2023-09-29T03:51:27.560Z,8.10
2023-09-29T03:53:59.078Z,7.40
2023-09-29T03:56:27.933Z,7.40
2023-09-29T03:58:57.001Z,8.60
2023-09-29T04:01:28.975Z,7.50
2023-09-29T04:03:57.279Z,7.50
2023-09-29T04:06:27.443Z,6.90
2023-09-29T04:08:57.195Z,7.70
2023-09-29T04:11:28.461Z,7.70
2023-09-29T04:13:56.898Z,7.80
2023-09-29T04:16:25.565Z,7.40
2023-09-29T04:18:54.276Z,7.50
2023-09-29T04:21:22.915Z,7.70
2023-09-29T04:23:51.280Z,7.80
2023-09-29T04:26:21.883Z,8.00
2023-09-29T04:28:52.111Z,7.80
2023-09-29T04:31:20.407Z,7.40
2023-09-29T04:33:49.498Z,7.60
2023-09-29T04:36:17.956Z,8.50
2023-09-29T04:38:47.079Z,7.90
2023-09-29T04:41:17.171Z,8.40
2023-09-29T04:43:45.452Z,7.70
2023-09-29T04:46:14.682Z,8.40
2023-09-29T04:48:43.653Z,8.60
2023-09-29T04:51:12.315Z,8.60
2023-09-29T04:53:40.632Z,9.20
2023-09-29T04:56:12.065Z,8.50
2023-09-29T04:58:41.807Z,9.30
2023-09-29T05:01:21.141Z,9.10
2023-09-29T05:03:52.812Z,9.80
2023-09-29T05:06:25.539Z,12.00
2023-09-29T05:08:54.875Z,14.70
2023-09-29T05:11:25.719Z,14.10
2023-09-29T05:13:56.506Z,15.10
2023-09-29T05:16:26.072Z,17.40
2023-09-29T05:18:55.898Z,18.10
2023-09-29T05:21:26.456Z,19.60
2023-09-29T05:23:55.899Z,20.10
2023-09-29T05:26:25.261Z,21.50
2023-09-29T05:28:55.809Z,20.00
2023-09-29T05:31:24.274Z,22.70
2023-09-29T05:33:55.507Z,20.90
2023-09-29T05:36:25.146Z,22.50
2023-09-29T05:38:54.433Z,24.20
2023-09-29T05:41:23.101Z,22.80
2023-09-29T05:43:56.859Z,22.30
2023-09-29T05:46:26.391Z,23.20
2023-09-29T05:48:57.197Z,23.00
2023-09-29T05:51:26.656Z,23.90
2023-09-29T05:53:55.369Z,22.90
2023-09-29T05:56:23.919Z,22.80
2023-09-29T05:58:54.288Z,22.90
2023-09-29T06:01:23.959Z,22.40
2023-09-29T06:03:53.662Z,24.00
2023-09-29T06:06:23.143Z,23.60
2023-09-29T06:08:55.369Z,23.50
2023-09-29T06:11:25.059Z,23.80
2023-09-29T06:13:53.373Z,22.90
2023-09-29T06:16:21.660Z,25.10
2023-09-29T06:18:50.274Z,22.90
2023-09-29T06:21:18.822Z,24.20
2023-09-29T06:23:47.178Z,23.90
2023-09-29T06:26:15.635Z,24.30
2023-09-29T06:28:45.138Z,26.50
2023-09-29T06:31:14.277Z,23.30
2023-09-29T06:33:43.745Z,24.50
2023-09-29T06:36:12.234Z,23.50
2023-09-29T06:38:40.629Z,23.20
2023-09-29T06:41:15.711Z,23.40
2023-09-29T06:43:48.419Z,22.70
2023-09-29T06:46:17.423Z,22.00
2023-09-29T06:48:46.124Z,21.70
2023-09-29T06:51:15.688Z,20.60
2023-09-29T06:53:44.074Z,21.50
2023-09-29T06:56:12.854Z,20.40
2023-09-29T06:58:41.159Z,20.50
2023-09-29T07:01:09.750Z,19.70
2023-09-29T07:03:38.355Z,19.90
2023-09-29T07:06:07.244Z,18.50
2023-09-29T07:08:36.227Z,19.10
2023-09-29T07:11:05.724Z,17.10
2023-09-29T07:13:34.396Z,17.00
2023-09-29T07:16:04.937Z,16.20
2023-09-29T07:18:33.744Z,15.20
2023-09-29T07:21:02.452Z,16.40
2023-09-29T07:23:35.163Z,16.60
2023-09-29T07:26:04.424Z,15.40
2023-09-29T07:28:34.562Z,14.40
2023-09-29T07:31:02.950Z,14.40
2023-09-29T07:33:33.424Z,14.20
2023-09-29T07:36:02.118Z,13.80
2023-09-29T07:38:31.665Z,13.70
2023-09-29T07:41:06.318Z,13.20
2023-09-29T07:43:35.436Z,12.40
2023-09-29T07:46:04.907Z,12.80
2023-09-29T07:48:33.621Z,12.50
2023-09-29T07:51:02.023Z,12.30
2023-09-29T07:53:31.212Z,12.90
2023-09-29T07:55:59.778Z,13.10
2023-09-29T07:58:28.034Z,12.00
2023-09-29T08:00:56.642Z,11.70
2023-09-29T08:03:25.300Z,11.80
2023-09-29T08:05:55.132Z,11.60
2023-09-29T08:08:23.433Z,10.90
2023-09-29T08:10:54.015Z,11.60
2023-09-29T08:13:25.607Z,11.80
2023-09-29T08:15:54.211Z,11.00
2023-09-29T08:18:22.492Z,10.90
2023-09-29T08:20:55.243Z,10.60
2023-09-29T08:23:23.847Z,10.80
2023-09-29T08:25:52.261Z,10.90
2023-09-29T08:28:20.890Z,10.70
2023-09-29T08:30:49.597Z,10.90
2023-09-29T08:33:25.469Z,10.50
2023-09-29T08:36:04.914Z,10.30
2023-09-29T08:38:33.459Z,10.40
2023-09-29T08:41:07.538Z,10.70
2023-09-29T08:43:38.867Z,10.60
2023-09-29T08:46:10.806Z,10.60
2023-09-29T08:48:45.018Z,10.30
2023-09-29T08:51:16.541Z,10.20
2023-09-29T08:53:46.744Z,10.60
2023-09-29T08:56:17.709Z,10.30
2023-09-29T08:58:48.032Z,10.20
2023-09-29T09:01:16.534Z,9.60
2023-09-29T09:03:46.914Z,9.20
2023-09-29T09:06:26.893Z,9.80
2023-09-29T09:08:58.049Z,9.40
2023-09-29T09:11:29.317Z,9.60
2023-09-29T09:14:05.649Z,9.70
2023-09-29T09:16:34.067Z,9.60
2023-09-29T09:19:29.722Z,8.70
2023-09-29T09:24:26.541Z,8.90
2023-09-29T09:27:03.793Z,8.80
2023-09-29T09:29:40.702Z,8.90
2023-09-29T09:32:09.345Z,9.30
2023-09-29T09:34:38.507Z,8.90
2023-09-29T09:37:07.969Z,8.60
2023-09-29T09:39:36.254Z,8.90
2023-09-29T09:42:07.652Z,8.40
2023-09-29T09:44:39.800Z,8.50
2023-09-29T09:47:15.719Z,9.20
2023-09-29T09:49:52.180Z,8.40
2023-09-29T09:52:31.504Z,8.80
2023-09-29T09:55:11.912Z,8.10
2023-09-29T09:57:46.734Z,8.40
2023-09-29T10:02:55.049Z,7.90
2023-09-29T10:05:25.977Z,8.00
2023-09-29T10:08:02.212Z,8.20
2023-09-29T10:10:36.668Z,8.20
2023-09-29T10:13:13.413Z,8.50
2023-09-29T10:15:44.038Z,8.10
2023-09-29T10:18:21.215Z,8.50
2023-09-29T10:21:02.418Z,8.00
2023-09-29T10:23:31.671Z,8.20
2023-09-29T10:26:04.152Z,8.10
2023-09-29T10:28:38.138Z,7.40
2023-09-29T10:31:18.895Z,8.00
2023-09-29T10:33:55.246Z,7.00
2023-09-29T10:36:30.270Z,7.40
2023-09-29T10:39:01.413Z,7.50
2023-09-29T10:41:36.451Z,7.80
2023-09-29T10:44:07.488Z,7.30
2023-09-29T10:46:36.286Z,7.40
2023-09-29T10:49:05.605Z,7.70
2023-09-29T10:51:34.100Z,7.30
2023-09-29T10:54:08.347Z,7.40
2023-09-29T10:56:39.341Z,8.10
2023-09-29T10:59:11.157Z,7.20
2023-09-29T11:01:39.883Z,6.90
2023-09-29T11:04:11.217Z,6.80
2023-09-29T11:06:51.466Z,7.30
2023-09-29T11:09:23.624Z,6.90
2023-09-29T11:11:52.895Z,6.70
2023-09-29T11:14:21.109Z,6.40
2023-09-29T11:16:59.515Z,6.70
2023-09-29T11:19:32.024Z,6.50
2023-09-29T11:22:03.383Z,7.20
2023-09-29T11:24:42.721Z,7.30
2023-09-29T11:27:13.006Z,7.00
2023-09-29T11:29:44.444Z,6.20
2023-09-29T11:32:13.547Z,6.90
2023-09-29T11:34:44.433Z,6.50
2023-09-29T11:37:13.853Z,6.80
2023-09-29T11:39:42.196Z,6.10
2023-09-29T11:42:10.895Z,6.30
2023-09-29T11:44:39.481Z,6.10
2023-09-29T11:47:07.854Z,6.10
2023-09-29T11:49:36.327Z,6.50
2023-09-29T11:52:05.232Z,6.70
2023-09-29T11:54:33.611Z,6.40
2023-09-29T11:57:03.212Z,6.60
2023-09-29T11:59:32.714Z,6.30
2023-09-29T12:02:01.497Z,6.20
2023-09-29T12:04:30.874Z,6.20
2023-09-29T12:07:00.116Z,5.80
2023-09-29T12:09:29.208Z,5.90
2023-09-29T12:12:03.254Z,6.10
2023-09-29T12:14:31.584Z,5.70
2023-09-29T12:17:01.194Z,6.00
2023-09-29T12:19:30.333Z,6.00
2023-09-29T12:21:58.882Z,6.30
2023-09-29T12:24:28.673Z,6.00
2023-09-29T12:26:58.977Z,6.10
2023-09-29T12:32:00.942Z,5.70
2023-09-29T12:34:33.837Z,5.80
2023-09-29T12:37:03.614Z,5.50
2023-09-29T12:39:33.173Z,5.60
2023-09-29T12:42:05.508Z,5.60
2023-09-29T12:44:36.306Z,5.60
2023-09-29T12:47:05.131Z,5.70
2023-09-29T12:49:34.609Z,5.80
2023-09-29T12:52:05.232Z,5.50
2023-09-29T12:54:43.112Z,5.90
2023-09-29T12:57:15.325Z,5.60
2023-09-29T12:59:51.035Z,5.60
2023-09-29T13:02:29.896Z,5.30
2023-09-29T13:05:00.402Z,5.50
2023-09-29T13:07:29.509Z,5.30
2023-09-29T13:09:58.105Z,5.40
2023-09-29T13:12:31.484Z,4.90
2023-09-29T13:15:00.940Z,5.20
2023-09-29T13:17:31.239Z,5.40
2023-09-29T13:19:59.925Z,5.30
2023-09-29T13:22:29.661Z,6.00
2023-09-29T13:25:00.144Z,5.30
2023-09-29T13:27:29.847Z,5.50
2023-09-29T13:29:58.137Z,5.60
2023-09-29T13:32:26.468Z,4.80
2023-09-29T13:34:54.842Z,5.10
2023-09-29T13:37:23.399Z,5.10
2023-09-29T13:39:52.798Z,5.20
2023-09-29T13:42:20.978Z,5.70
2023-09-29T13:44:49.899Z,5.40
2023-09-29T13:47:18.267Z,5.10
2023-09-29T13:49:47.834Z,5.20
2023-09-29T13:52:20.831Z,4.80
2023-09-29T13:54:50.763Z,5.40
2023-09-29T13:57:20.951Z,5.30
2023-09-29T13:59:49.783Z,5.50
2023-09-29T14:02:19.152Z,4.80
2023-09-29T14:04:47.818Z,5.30
2023-09-29T14:07:16.408Z,5.30
2023-09-29T14:09:44.810Z,5.60
2023-09-29T14:12:13.136Z,5.60
2023-09-29T14:14:41.807Z,4.90
2023-09-29T14:17:10.631Z,5.20
2023-09-29T14:19:39.228Z,5.10
2023-09-29T14:22:07.500Z,5.00
2023-09-29T14:24:35.920Z,5.20
2023-09-29T14:27:05.686Z,5.50
2023-09-29T14:29:34.411Z,5.00
2023-09-29T14:32:03.631Z,5.10
2023-09-29T14:34:33.040Z,5.20
2023-09-29T14:37:02.300Z,5.20
2023-09-29T14:39:33.848Z,5.40
2023-09-29T14:42:03.231Z,5.20
2023-09-29T14:44:35.069Z,4.90
2023-09-29T14:47:08.856Z,5.40
2023-09-29T14:49:41.328Z,5.20
2023-09-29T14:52:12.532Z,5.30
2023-09-29T14:54:41.111Z,5.10
2023-09-29T14:57:10.192Z,5.30
2023-09-29T14:59:39.042Z,5.00
2023-09-29T15:02:07.823Z,5.10
2023-09-29T15:04:55.635Z,5.10
2023-09-29T15:07:27.176Z,5.20
2023-09-29T15:09:56.921Z,5.00
2023-09-29T15:12:29.102Z,4.90
2023-09-29T15:15:00.110Z,5.00
2023-09-29T15:17:30.525Z,5.00
2023-09-29T15:20:01.779Z,5.20
2023-09-29T15:22:32.847Z,5.30
2023-09-29T15:25:04.308Z,5.50
2023-09-29T15:27:33.141Z,5.50
2023-09-29T15:30:03.925Z,5.30
2023-09-29T15:32:36.333Z,5.10
2023-09-29T15:35:14.318Z,4.80
2023-09-29T15:37:46.036Z,5.00
2023-09-29T15:40:16.007Z,5.40
2023-09-29T15:42:46.307Z,5.00
2023-09-29T15:45:14.907Z,5.10
2023-09-29T15:47:45.213Z,5.30
2023-09-29T15:50:17.418Z,5.10
2023-09-29T15:52:49.786Z,5.30
2023-09-29T15:55:19.554Z,5.20
2023-09-29T15:57:51.680Z,5.10
2023-09-29T16:00:22.114Z,5.50
2023-09-29T16:02:57.524Z,5.00
2023-09-29T16:05:29.549Z,5.40
2023-09-29T16:08:00.058Z,4.80
2023-09-29T16:10:31.014Z,4.80
2023-09-29T16:13:00.719Z,4.80
2023-09-29T16:15:29.934Z,5.00
2023-09-29T16:18:00.893Z,4.70
2023-09-29T16:20:29.674Z,4.90
2023-09-29T16:22:58.682Z,5.00
2023-09-29T16:25:27.834Z,4.80
2023-09-29T16:27:58.584Z,5.10
2023-09-29T16:30:28.208Z,5.00
2023-09-29T16:32:59.010Z,4.80
2023-09-29T16:35:37.282Z,5.10
2023-09-29T16:38:08.092Z,4.90
2023-09-29T16:40:37.484Z,4.80
2023-09-29T16:43:14.189Z,4.70
2023-09-29T16:45:43.955Z,4.70
2023-09-29T16:48:12.484Z,5.00
2023-09-29T16:50:42.879Z,4.70
2023-09-29T16:53:11.639Z,5.00
2023-09-29T16:55:42.471Z,5.10
2023-09-29T16:58:11.458Z,5.20
2023-09-29T17:00:40.055Z,5.30
2023-09-29T17:03:08.477Z,5.20
2023-09-29T17:05:37.524Z,4.90
2023-09-29T17:08:06.585Z,5.10
2023-09-29T17:10:34.797Z,5.40
2023-09-29T17:13:02.975Z,5.20
2023-09-29T17:15:31.408Z,5.70
2023-09-29T17:17:59.831Z,5.80
2023-09-29T17:20:28.673Z,5.50
2023-09-29T17:22:57.202Z,5.30
2023-09-29T17:25:25.475Z,5.90
2023-09-29T17:27:53.873Z,6.20
2023-09-29T17:30:23.769Z,6.90
2023-09-29T17:32:52.289Z,6.50
2023-09-29T17:35:20.690Z,6.70
2023-09-29T17:37:49.824Z,6.70
2023-09-29T17:40:20.109Z,6.60
2023-09-29T17:42:50.211Z,6.80
2023-09-29T17:45:19.741Z,7.10
2023-09-29T17:47:48.414Z,6.90
2023-09-29T17:50:19.105Z,6.80
2023-09-29T17:52:50.780Z,7.00
2023-09-29T17:55:20.045Z,6.80
2023-09-29T17:57:49.198Z,7.20
2023-09-29T18:00:19.220Z,6.90
2023-09-29T18:02:48.166Z,7.90
2023-09-29T18:05:20.207Z,7.30
2023-09-29T18:07:52.295Z,6.90
2023-09-29T18:10:21.483Z,6.50
2023-09-29T18:12:51.867Z,7.30
2023-09-29T18:15:22.362Z,7.00
2023-09-29T18:17:51.301Z,8.30
2023-09-29T18:20:20.141Z,7.60
2023-09-29T18:22:48.721Z,8.00
2023-09-29T18:25:17.704Z,7.20
2023-09-29T18:27:46.951Z,7.70
2023-09-29T18:30:15.731Z,6.70
2023-09-29T18:32:44.195Z,7.70
2023-09-29T18:35:12.612Z,7.90
2023-09-29T18:37:42.841Z,7.70
2023-09-29T18:40:15.143Z,7.50
2023-09-29T18:42:47.201Z,7.70
2023-09-29T18:45:16.941Z,6.70
2023-09-29T18:47:49.349Z,7.70
2023-09-29T18:50:21.654Z,7.30
2023-09-29T18:52:51.261Z,7.70
2023-09-29T18:55:23.457Z,7.70
2023-09-29T18:57:53.183Z,7.50
2023-09-29T19:00:25.454Z,7.30
2023-09-29T19:02:56.617Z,7.70
2023-09-29T19:05:25.195Z,7.50
2023-09-29T19:07:54.375Z,7.70
2023-09-29T19:10:24.234Z,7.90
2023-09-29T19:12:55.010Z,7.80
2023-09-29T19:15:25.949Z,7.50
2023-09-29T19:17:55.229Z,7.60
2023-09-29T19:20:24.915Z,7.50
2023-09-29T19:22:56.218Z,7.90
2023-09-29T19:25:25.674Z,8.40
2023-09-29T19:27:55.906Z,7.10
2023-09-29T19:30:25.293Z,7.20
2023-09-29T19:32:59.864Z,7.40
2023-09-29T19:35:29.387Z,8.30
2023-09-29T19:37:58.499Z,7.50
2023-09-29T19:40:27.571Z,8.10
2023-09-29T19:42:58.726Z,7.40
2023-09-29T19:45:28.465Z,7.60
2023-09-29T19:47:58.682Z,7.30
2023-09-29T19:50:27.550Z,7.20
2023-09-29T19:52:57.237Z,7.30
2023-09-29T19:55:30.008Z,7.10
2023-09-29T19:58:01.308Z,6.90
2023-09-29T20:00:30.483Z,7.30
2023-09-29T20:03:00.088Z,7.10
2023-09-29T20:05:28.962Z,6.90
2023-09-29T20:07:57.749Z,6.60
2023-09-29T20:10:26.942Z,7.20
2023-09-29T20:12:55.450Z,6.70
2023-09-29T20:15:24.454Z,6.70
2023-09-29T20:17:53.688Z,7.40
2023-09-29T20:20:22.009Z,6.50
2023-09-29T20:22:51.001Z,6.80
2023-09-29T20:25:19.302Z,7.20
2023-09-29T20:27:47.656Z,6.90
2023-09-29T20:30:16.322Z,7.30
2023-09-29T20:32:46.676Z,6.70
2023-09-29T20:35:18.221Z,6.60
2023-09-29T20:37:47.623Z,6.70
2023-09-29T20:40:19.521Z,6.90
2023-09-29T20:42:48.825Z,7.10
2023-09-29T20:45:18.100Z,6.50
2023-09-29T20:47:47.365Z,7.00
2023-09-29T20:50:16.113Z,6.70
2023-09-29T20:52:45.619Z,6.50
2023-09-29T20:55:14.165Z,6.50
2023-09-29T20:57:42.739Z,6.60
2023-09-29T21:00:13.695Z,7.00
2023-09-29T21:02:42.516Z,7.30
2023-09-29T21:05:11.285Z,7.30
2023-09-29T21:07:40.144Z,6.90
2023-09-29T21:10:10.101Z,6.90
2023-09-29T21:12:39.018Z,7.20
2023-09-29T21:15:08.206Z,6.80
2023-09-29T21:17:37.317Z,7.20
2023-09-29T21:20:13.256Z,6.90
2023-09-29T21:22:44.160Z,6.50
2023-09-29T21:25:14.230Z,6.60
2023-09-29T21:27:43.535Z,6.70
2023-09-29T21:30:13.506Z,6.80
2023-09-29T21:32:42.707Z,6.90
2023-09-29T21:35:11.692Z,6.80
2023-09-29T21:37:41.087Z,6.50
2023-09-29T21:40:11.428Z,6.20
2023-09-29T21:42:39.744Z,6.50
2023-09-29T21:45:10.051Z,6.60
2023-09-29T21:47:38.642Z,6.60
2023-09-29T21:50:08.687Z,6.40
2023-09-29T21:52:36.790Z,6.60
2023-09-29T21:55:06.438Z,6.30
2023-09-29T21:57:35.070Z,6.40
2023-09-29T22:00:17.757Z,6.40
2023-09-29T22:02:47.912Z,5.80
2023-09-29T22:05:19.750Z,6.20
2023-09-29T22:07:49.054Z,6.30
2023-09-29T22:10:17.653Z,6.20
2023-09-29T22:12:46.792Z,6.60
2023-09-29T22:15:17.066Z,5.90
2023-09-29T22:17:46.638Z,6.30
2023-09-29T22:20:15.552Z,6.10
2023-09-29T22:22:44.241Z,6.00
2023-09-29T22:25:12.521Z,6.10
2023-09-29T22:27:40.772Z,5.60
2023-09-29T22:30:11.622Z,6.00
2023-09-29T22:32:43.685Z,5.90
2023-09-29T22:35:14.615Z,5.90
2023-09-29T22:37:48.366Z,5.60
2023-09-29T22:40:20.231Z,5.90
2023-09-29T22:42:50.032Z,5.90
2023-09-29T22:45:19.345Z,5.60
2023-09-29T22:47:48.970Z,6.30
2023-09-29T22:50:21.384Z,6.00
2023-09-29T22:52:51.135Z,5.60
2023-09-29T22:55:20.219Z,5.90
2023-09-29T22:57:49.208Z,5.90
2023-09-29T23:00:18.637Z,5.60
2023-09-29T23:02:48.286Z,5.60
2023-09-29T23:05:18.759Z,5.80
2023-09-29T23:07:49.082Z,5.80
2023-09-29T23:10:19.501Z,6.40
2023-09-29T23:12:50.847Z,5.80
2023-09-29T23:15:21.106Z,5.80
2023-09-29T23:17:51.931Z,5.70
2023-09-29T23:20:21.001Z,5.50
2023-09-29T23:22:52.044Z,5.70
2023-09-29T23:25:20.836Z,5.90
2023-09-29T23:27:50.122Z,5.50
2023-09-29T23:30:19.590Z,5.80
2023-09-29T23:32:47.853Z,5.50
2023-09-29T23:35:15.922Z,5.50
2023-09-29T23:37:46.096Z,6.00
2023-09-29T23:40:16.040Z,5.70
2023-09-29T23:42:45.438Z,6.00
2023-09-29T23:45:14.226Z,5.50
2023-09-29T23:47:44.598Z,5.60
2023-09-29T23:50:13.027Z,5.00
2023-09-29T23:52:41.102Z,5.50
2023-09-29T23:55:10.286Z,5.90
2023-09-29T23:57:38.801Z,5.80
